sensor_id;sensor_type;location;lat;lon;timestamp;P1;durP1;ratioP1;P2;durP2;ratioP2
31347;SDS011;21711;49.708;18.568;2024-02-23T00:01:51;3.00;;;1.20;;
31347;SDS011;21711;49.708;18.568;2024-02-23T00:04:19;3.10;;;1.17;;
31347;SDS011;21711;49.708;18.568;2024-02-23T00:06:46;3.33;;;1.40;;
31347;SDS011;21711;49.708;18.568;2024-02-23T00:09:13;8.20;;;1.67;;
31347;SDS011;21711;49.708;18.568;2024-02-23T00:11:41;2.42;;;1.30;;
31347;SDS011;21711;49.708;18.568;2024-02-23T00:14:12;3.10;;;1.42;;
31347;SDS011;21711;49.708;18.568;2024-02-23T00:16:40;5.30;;;1.65;;
31347;SDS011;21711;49.708;18.568;2024-02-23T00:19:08;3.22;;;1.55;;
31347;SDS011;21711;49.708;18.568;2024-02-23T00:21:36;3.90;;;1.52;;
31347;SDS011;21711;49.708;18.568;2024-02-23T00:24:08;4.55;;;1.20;;
31347;SDS011;21711;49.708;18.568;2024-02-23T00:26:36;2.53;;;1.35;;
31347;SDS011;21711;49.708;18.568;2024-02-23T00:29:03;5.95;;;1.60;;
31347;SDS011;21711;49.708;18.568;2024-02-23T00:31:30;3.70;;;1.60;;
31347;SDS011;21711;49.708;18.568;2024-02-23T00:33:58;2.60;;;1.33;;
31347;SDS011;21711;49.708;18.568;2024-02-23T00:36:25;8.73;;;2.85;;
31347;SDS011;21711;49.708;18.568;2024-02-23T00:38:52;6.28;;;1.42;;
31347;SDS011;21711;49.708;18.568;2024-02-23T00:41:20;3.38;;;1.60;;
31347;SDS011;21711;49.708;18.568;2024-02-23T00:43:47;3.95;;;1.27;;
31347;SDS011;21711;49.708;18.568;2024-02-23T00:46:14;3.60;;;1.45;;
31347;SDS011;21711;49.708;18.568;2024-02-23T00:48:42;3.80;;;1.33;;
31347;SDS011;21711;49.708;18.568;2024-02-23T00:51:10;4.22;;;1.60;;
31347;SDS011;21711;49.708;18.568;2024-02-23T00:53:37;1.75;;;1.00;;
31347;SDS011;21711;49.708;18.568;2024-02-23T00:56:05;1.83;;;1.23;;
31347;SDS011;21711;49.708;18.568;2024-02-23T00:58:33;1.90;;;1.25;;
31347;SDS011;21711;49.708;18.568;2024-02-23T01:01:00;2.25;;;1.08;;
31347;SDS011;21711;49.708;18.568;2024-02-23T01:03:27;1.98;;;1.10;;
31347;SDS011;21711;49.708;18.568;2024-02-23T01:05:55;1.60;;;0.80;;
31347;SDS011;21711;49.708;18.568;2024-02-23T01:08:22;2.28;;;1.15;;
31347;SDS011;21711;49.708;18.568;2024-02-23T01:10:49;2.67;;;1.27;;
31347;SDS011;21711;49.708;18.568;2024-02-23T01:13:17;2.78;;;1.02;;
31347;SDS011;21711;49.708;18.568;2024-02-23T01:15:44;4.68;;;1.38;;
31347;SDS011;21711;49.708;18.568;2024-02-23T01:18:11;1.05;;;0.85;;
31347;SDS011;21711;49.708;18.568;2024-02-23T01:20:39;1.58;;;0.70;;
31347;SDS011;21711;49.708;18.568;2024-02-23T01:23:06;3.28;;;1.00;;
31347;SDS011;21711;49.708;18.568;2024-02-23T01:25:34;4.72;;;1.27;;
31347;SDS011;21711;49.708;18.568;2024-02-23T01:28:02;1.77;;;0.85;;
31347;SDS011;21711;49.708;18.568;2024-02-23T01:30:29;1.42;;;1.02;;
31347;SDS011;21711;49.708;18.568;2024-02-23T01:32:57;1.30;;;0.63;;
31347;SDS011;21711;49.708;18.568;2024-02-23T01:35:24;2.75;;;0.98;;
31347;SDS011;21711;49.708;18.568;2024-02-23T01:37:53;3.13;;;0.70;;
31347;SDS011;21711;49.708;18.568;2024-02-23T01:40:20;3.15;;;0.85;;
31347;SDS011;21711;49.708;18.568;2024-02-23T01:42:47;2.78;;;0.90;;
31347;SDS011;21711;49.708;18.568;2024-02-23T01:45:15;2.85;;;0.90;;
31347;SDS011;21711;49.708;18.568;2024-02-23T01:47:42;2.13;;;0.85;;
31347;SDS011;21711;49.708;18.568;2024-02-23T01:50:10;1.35;;;0.60;;
31347;SDS011;21711;49.708;18.568;2024-02-23T01:52:39;1.65;;;0.60;;
31347;SDS011;21711;49.708;18.568;2024-02-23T01:55:06;2.65;;;0.88;;
31347;SDS011;21711;49.708;18.568;2024-02-23T01:57:34;1.50;;;0.60;;
31347;SDS011;21711;49.708;18.568;2024-02-23T02:00:16;2.03;;;0.80;;
31347;SDS011;21711;49.708;18.568;2024-02-23T02:02:51;1.75;;;0.73;;
31347;SDS011;21711;49.708;18.568;2024-02-23T02:05:19;2.78;;;0.60;;
31347;SDS011;21711;49.708;18.568;2024-02-23T02:07:47;3.60;;;0.82;;
31347;SDS011;21711;49.708;18.568;2024-02-23T02:10:20;2.38;;;1.08;;
31347;SDS011;21711;49.708;18.568;2024-02-23T02:12:48;1.65;;;0.85;;
31347;SDS011;21711;49.708;18.568;2024-02-23T02:15:15;1.83;;;0.82;;
31347;SDS011;21711;49.708;18.568;2024-02-23T02:17:43;2.75;;;1.10;;
31347;SDS011;21711;49.708;18.568;2024-02-23T02:20:11;2.88;;;0.70;;
31347;SDS011;21711;49.708;18.568;2024-02-23T02:22:40;2.30;;;0.70;;
31347;SDS011;21711;49.708;18.568;2024-02-23T02:25:07;1.52;;;0.60;;
31347;SDS011;21711;49.708;18.568;2024-02-23T02:27:35;0.75;;;0.70;;
31347;SDS011;21711;49.708;18.568;2024-02-23T02:30:02;3.60;;;0.75;;
31347;SDS011;21711;49.708;18.568;2024-02-23T02:32:30;1.45;;;0.63;;
31347;SDS011;21711;49.708;18.568;2024-02-23T02:35:02;1.30;;;0.90;;
31347;SDS011;21711;49.708;18.568;2024-02-23T02:37:31;1.20;;;0.40;;
31347;SDS011;21711;49.708;18.568;2024-02-23T02:39:58;1.90;;;0.70;;
31347;SDS011;21711;49.708;18.568;2024-02-23T02:42:25;0.80;;;0.60;;
31347;SDS011;21711;49.708;18.568;2024-02-23T02:44:55;0.80;;;0.50;;
31347;SDS011;21711;49.708;18.568;2024-02-23T02:47:22;1.85;;;0.60;;
31347;SDS011;21711;49.708;18.568;2024-02-23T02:49:50;1.50;;;0.70;;
31347;SDS011;21711;49.708;18.568;2024-02-23T02:52:18;0.73;;;0.30;;
31347;SDS011;21711;49.708;18.568;2024-02-23T02:54:47;1.10;;;0.50;;
31347;SDS011;21711;49.708;18.568;2024-02-23T02:57:15;0.88;;;0.30;;
31347;SDS011;21711;49.708;18.568;2024-02-23T02:59:43;1.10;;;0.82;;
31347;SDS011;21711;49.708;18.568;2024-02-23T03:02:11;1.20;;;0.40;;
31347;SDS011;21711;49.708;18.568;2024-02-23T03:04:39;1.25;;;0.45;;
31347;SDS011;21711;49.708;18.568;2024-02-23T03:07:12;0.85;;;0.40;;
31347;SDS011;21711;49.708;18.568;2024-02-23T03:09:40;1.00;;;0.40;;
31347;SDS011;21711;49.708;18.568;2024-02-23T03:12:08;0.65;;;0.35;;
31347;SDS011;21711;49.708;18.568;2024-02-23T03:14:36;0.90;;;0.50;;
31347;SDS011;21711;49.708;18.568;2024-02-23T03:17:07;0.60;;;0.40;;
31347;SDS011;21711;49.708;18.568;2024-02-23T03:19:36;1.13;;;0.50;;
31347;SDS011;21711;49.708;18.568;2024-02-23T03:22:04;0.25;;;0.20;;
31347;SDS011;21711;49.708;18.568;2024-02-23T03:24:32;0.70;;;0.30;;
31347;SDS011;21711;49.708;18.568;2024-02-23T03:27:00;0.90;;;0.40;;
31347;SDS011;21711;49.708;18.568;2024-02-23T03:29:27;0.75;;;0.40;;
31347;SDS011;21711;49.708;18.568;2024-02-23T03:31:56;1.20;;;0.40;;
31347;SDS011;21711;49.708;18.568;2024-02-23T03:34:24;0.80;;;0.47;;
31347;SDS011;21711;49.708;18.568;2024-02-23T03:36:52;0.75;;;0.40;;
31347;SDS011;21711;49.708;18.568;2024-02-23T03:39:19;0.95;;;0.45;;
31347;SDS011;21711;49.708;18.568;2024-02-23T03:41:46;1.88;;;0.40;;
31347;SDS011;21711;49.708;18.568;2024-02-23T03:44:14;1.02;;;0.40;;
31347;SDS011;21711;49.708;18.568;2024-02-23T03:46:41;0.75;;;0.40;;
31347;SDS011;21711;49.708;18.568;2024-02-23T03:49:08;1.25;;;0.47;;
31347;SDS011;21711;49.708;18.568;2024-02-23T03:51:36;0.98;;;0.45;;
31347;SDS011;21711;49.708;18.568;2024-02-23T03:54:06;0.57;;;0.30;;
31347;SDS011;21711;49.708;18.568;2024-02-23T03:56:39;0.50;;;0.30;;
31347;SDS011;21711;49.708;18.568;2024-02-23T03:59:08;0.70;;;0.40;;
31347;SDS011;21711;49.708;18.568;2024-02-23T04:01:37;0.63;;;0.20;;
31347;SDS011;21711;49.708;18.568;2024-02-23T04:04:06;0.82;;;0.38;;
31347;SDS011;21711;49.708;18.568;2024-02-23T04:06:34;0.75;;;0.25;;
31347;SDS011;21711;49.708;18.568;2024-02-23T04:09:01;1.50;;;0.57;;
31347;SDS011;21711;49.708;18.568;2024-02-23T04:11:32;0.85;;;0.47;;
31347;SDS011;21711;49.708;18.568;2024-02-23T04:14:00;0.40;;;0.40;;
31347;SDS011;21711;49.708;18.568;2024-02-23T04:16:28;0.85;;;0.63;;
31347;SDS011;21711;49.708;18.568;2024-02-23T04:18:55;0.98;;;0.43;;
31347;SDS011;21711;49.708;18.568;2024-02-23T04:21:23;0.22;;;0.20;;
31347;SDS011;21711;49.708;18.568;2024-02-23T04:23:51;0.63;;;0.03;;
31347;SDS011;21711;49.708;18.568;2024-02-23T04:26:19;1.23;;;0.63;;
31347;SDS011;21711;49.708;18.568;2024-02-23T04:28:46;1.35;;;0.50;;
31347;SDS011;21711;49.708;18.568;2024-02-23T04:31:14;0.68;;;0.28;;
31347;SDS011;21711;49.708;18.568;2024-02-23T04:33:41;0.40;;;0.28;;
31347;SDS011;21711;49.708;18.568;2024-02-23T04:36:09;0.63;;;0.38;;
31347;SDS011;21711;49.708;18.568;2024-02-23T04:38:36;0.80;;;0.22;;
31347;SDS011;21711;49.708;18.568;2024-02-23T04:41:03;0.45;;;0.30;;
31347;SDS011;21711;49.708;18.568;2024-02-23T04:43:32;0.32;;;0.20;;
31347;SDS011;21711;49.708;18.568;2024-02-23T04:45:59;0.57;;;0.28;;
31347;SDS011;21711;49.708;18.568;2024-02-23T04:48:26;2.17;;;0.25;;
31347;SDS011;21711;49.708;18.568;2024-02-23T04:50:54;0.75;;;0.30;;
31347;SDS011;21711;49.708;18.568;2024-02-23T04:53:21;0.52;;;0.30;;
31347;SDS011;21711;49.708;18.568;2024-02-23T04:55:48;0.55;;;0.35;;
31347;SDS011;21711;49.708;18.568;2024-02-23T04:58:16;0.40;;;0.20;;
31347;SDS011;21711;49.708;18.568;2024-02-23T05:00:43;0.93;;;0.43;;
31347;SDS011;21711;49.708;18.568;2024-02-23T05:03:11;0.93;;;0.32;;
31347;SDS011;21711;49.708;18.568;2024-02-23T05:05:39;0.63;;;0.30;;
31347;SDS011;21711;49.708;18.568;2024-02-23T05:08:06;0.60;;;0.30;;
31347;SDS011;21711;49.708;18.568;2024-02-23T05:10:34;0.52;;;0.20;;
31347;SDS011;21711;49.708;18.568;2024-02-23T05:13:01;1.05;;;0.50;;
31347;SDS011;21711;49.708;18.568;2024-02-23T05:15:29;0.98;;;0.35;;
31347;SDS011;21711;49.708;18.568;2024-02-23T05:17:56;0.30;;;0.20;;
31347;SDS011;21711;49.708;18.568;2024-02-23T05:20:24;1.10;;;0.30;;
31347;SDS011;21711;49.708;18.568;2024-02-23T05:22:51;0.73;;;0.32;;
31347;SDS011;21711;49.708;18.568;2024-02-23T05:25:19;0.73;;;0.32;;
31347;SDS011;21711;49.708;18.568;2024-02-23T05:27:46;0.45;;;0.20;;
31347;SDS011;21711;49.708;18.568;2024-02-23T05:30:14;0.95;;;0.45;;
31347;SDS011;21711;49.708;18.568;2024-02-23T05:32:42;0.50;;;0.20;;
31347;SDS011;21711;49.708;18.568;2024-02-23T05:35:10;0.50;;;0.25;;
31347;SDS011;21711;49.708;18.568;2024-02-23T05:37:38;0.30;;;0.10;;
31347;SDS011;21711;49.708;18.568;2024-02-23T05:40:06;0.55;;;0.20;;
31347;SDS011;21711;49.708;18.568;2024-02-23T05:42:37;0.17;;;0.10;;
31347;SDS011;21711;49.708;18.568;2024-02-23T05:45:06;0.65;;;0.25;;
31347;SDS011;21711;49.708;18.568;2024-02-23T05:47:38;1.17;;;0.38;;
31347;SDS011;21711;49.708;18.568;2024-02-23T05:50:10;0.57;;;0.30;;
31347;SDS011;21711;49.708;18.568;2024-02-23T05:52:37;0.50;;;0.28;;
31347;SDS011;21711;49.708;18.568;2024-02-23T05:55:06;0.10;;;0.10;;
31347;SDS011;21711;49.708;18.568;2024-02-23T05:57:34;2.05;;;0.35;;
31347;SDS011;21711;49.708;18.568;2024-02-23T06:00:02;0.38;;;0.20;;
31347;SDS011;21711;49.708;18.568;2024-02-23T06:02:37;0.57;;;0.20;;
31347;SDS011;21711;49.708;18.568;2024-02-23T06:05:05;1.15;;;0.30;;
31347;SDS011;21711;49.708;18.568;2024-02-23T06:07:34;0.22;;;0.13;;
31347;SDS011;21711;49.708;18.568;2024-02-23T06:10:03;2.17;;;0.50;;
31347;SDS011;21711;49.708;18.568;2024-02-23T06:12:31;1.95;;;0.22;;
31347;SDS011;21711;49.708;18.568;2024-02-23T06:14:59;2.97;;;0.20;;
31347;SDS011;21711;49.708;18.568;2024-02-23T06:17:26;0.57;;;0.22;;
31347;SDS011;21711;49.708;18.568;2024-02-23T06:19:54;1.30;;;0.20;;
31347;SDS011;21711;49.708;18.568;2024-02-23T06:22:24;2.95;;;0.30;;
31347;SDS011;21711;49.708;18.568;2024-02-23T06:24:52;0.40;;;0.20;;
31347;SDS011;21711;49.708;18.568;2024-02-23T06:27:19;0.52;;;0.30;;
31347;SDS011;21711;49.708;18.568;2024-02-23T06:29:48;1.50;;;0.13;;
31347;SDS011;21711;49.708;18.568;2024-02-23T06:32:16;0.30;;;0.20;;
31347;SDS011;21711;49.708;18.568;2024-02-23T06:34:44;1.00;;;0.60;;
31347;SDS011;21711;49.708;18.568;2024-02-23T06:37:12;7.97;;;0.50;;
31347;SDS011;21711;49.708;18.568;2024-02-23T06:39:40;2.17;;;0.45;;
31347;SDS011;21711;49.708;18.568;2024-02-23T06:42:07;0.68;;;0.25;;
31347;SDS011;21711;49.708;18.568;2024-02-23T06:44:35;2.13;;;0.20;;
31347;SDS011;21711;49.708;18.568;2024-02-23T06:47:02;0.40;;;0.22;;
31347;SDS011;21711;49.708;18.568;2024-02-23T06:49:30;0.52;;;0.20;;
31347;SDS011;21711;49.708;18.568;2024-02-23T06:51:57;1.48;;;0.28;;
31347;SDS011;21711;49.708;18.568;2024-02-23T06:54:25;1.75;;;0.40;;
31347;SDS011;21711;49.708;18.568;2024-02-23T06:56:52;0.50;;;0.25;;
31347;SDS011;21711;49.708;18.568;2024-02-23T06:59:20;0.60;;;0.43;;
31347;SDS011;21711;49.708;18.568;2024-02-23T07:01:50;1.27;;;0.40;;
31347;SDS011;21711;49.708;18.568;2024-02-23T07:04:18;0.68;;;0.30;;
31347;SDS011;21711;49.708;18.568;2024-02-23T07:06:46;1.67;;;0.77;;
31347;SDS011;21711;49.708;18.568;2024-02-23T07:09:14;1.70;;;0.70;;
31347;SDS011;21711;49.708;18.568;2024-02-23T07:11:41;2.35;;;0.50;;
31347;SDS011;21711;49.708;18.568;2024-02-23T07:14:10;0.88;;;0.45;;
31347;SDS011;21711;49.708;18.568;2024-02-23T07:16:40;3.03;;;1.00;;
31347;SDS011;21711;49.708;18.568;2024-02-23T07:19:08;0.60;;;0.47;;
31347;SDS011;21711;49.708;18.568;2024-02-23T07:21:36;1.45;;;0.63;;
31347;SDS011;21711;49.708;18.568;2024-02-23T07:24:08;1.48;;;0.80;;
31347;SDS011;21711;49.708;18.568;2024-02-23T07:26:36;1.98;;;0.70;;
31347;SDS011;21711;49.708;18.568;2024-02-23T07:29:03;2.00;;;0.80;;
31347;SDS011;21711;49.708;18.568;2024-02-23T07:31:31;1.75;;;0.70;;
31347;SDS011;21711;49.708;18.568;2024-02-23T07:33:59;2.30;;;0.93;;
31347;SDS011;21711;49.708;18.568;2024-02-23T07:36:27;2.15;;;0.80;;
31347;SDS011;21711;49.708;18.568;2024-02-23T07:38:54;1.85;;;0.68;;
31347;SDS011;21711;49.708;18.568;2024-02-23T07:41:21;1.83;;;0.90;;
31347;SDS011;21711;49.708;18.568;2024-02-23T07:43:49;3.30;;;1.10;;
31347;SDS011;21711;49.708;18.568;2024-02-23T07:46:16;2.00;;;1.25;;
31347;SDS011;21711;49.708;18.568;2024-02-23T07:48:44;1.83;;;1.13;;
31347;SDS011;21711;49.708;18.568;2024-02-23T07:51:12;2.15;;;1.15;;
31347;SDS011;21711;49.708;18.568;2024-02-23T07:53:39;2.15;;;1.08;;
31347;SDS011;21711;49.708;18.568;2024-02-23T07:56:09;1.10;;;0.77;;
31347;SDS011;21711;49.708;18.568;2024-02-23T07:58:38;1.38;;;0.60;;
31347;SDS011;21711;49.708;18.568;2024-02-23T08:01:05;1.45;;;0.80;;
31347;SDS011;21711;49.708;18.568;2024-02-23T08:03:32;1.83;;;1.10;;
31347;SDS011;21711;49.708;18.568;2024-02-23T08:06:00;1.17;;;0.73;;
31347;SDS011;21711;49.708;18.568;2024-02-23T08:08:29;1.10;;;0.60;;
31347;SDS011;21711;49.708;18.568;2024-02-23T08:10:59;2.92;;;0.80;;
31347;SDS011;21711;49.708;18.568;2024-02-23T08:13:28;2.70;;;1.30;;
31347;SDS011;21711;49.708;18.568;2024-02-23T08:15:56;1.70;;;1.00;;
31347;SDS011;21711;49.708;18.568;2024-02-23T08:18:24;1.05;;;0.65;;
31347;SDS011;21711;49.708;18.568;2024-02-23T08:20:53;1.70;;;0.75;;
31347;SDS011;21711;49.708;18.568;2024-02-23T08:23:21;1.88;;;0.77;;
31347;SDS011;21711;49.708;18.568;2024-02-23T08:25:49;0.85;;;0.47;;
31347;SDS011;21711;49.708;18.568;2024-02-23T08:28:17;1.20;;;0.60;;
31347;SDS011;21711;49.708;18.568;2024-02-23T08:30:44;2.08;;;0.88;;
31347;SDS011;21711;49.708;18.568;2024-02-23T08:33:12;1.08;;;0.50;;
31347;SDS011;21711;49.708;18.568;2024-02-23T08:35:39;4.20;;;1.23;;
31347;SDS011;21711;49.708;18.568;2024-02-23T08:38:06;2.05;;;1.02;;
31347;SDS011;21711;49.708;18.568;2024-02-23T08:40:34;2.25;;;1.02;;
31347;SDS011;21711;49.708;18.568;2024-02-23T08:43:01;2.60;;;1.40;;
31347;SDS011;21711;49.708;18.568;2024-02-23T08:45:29;1.80;;;1.00;;
31347;SDS011;21711;49.708;18.568;2024-02-23T08:47:56;2.88;;;1.10;;
31347;SDS011;21711;49.708;18.568;2024-02-23T08:50:24;3.03;;;1.50;;
31347;SDS011;21711;49.708;18.568;2024-02-23T08:52:51;3.35;;;1.35;;
31347;SDS011;21711;49.708;18.568;2024-02-23T08:55:19;4.07;;;2.00;;
31347;SDS011;21711;49.708;18.568;2024-02-23T08:57:47;4.82;;;1.35;;
31347;SDS011;21711;49.708;18.568;2024-02-23T09:00:15;3.30;;;1.35;;
31347;SDS011;21711;49.708;18.568;2024-02-23T09:02:44;3.45;;;1.90;;
31347;SDS011;21711;49.708;18.568;2024-02-23T09:05:11;4.30;;;1.40;;
31347;SDS011;21711;49.708;18.568;2024-02-23T09:07:39;4.25;;;0.90;;
31347;SDS011;21711;49.708;18.568;2024-02-23T09:10:07;2.00;;;1.13;;
31347;SDS011;21711;49.708;18.568;2024-02-23T09:12:35;6.32;;;3.00;;
31347;SDS011;21711;49.708;18.568;2024-02-23T09:15:02;26.35;;;13.90;;
31347;SDS011;21711;49.708;18.568;2024-02-23T09:17:31;27.20;;;13.82;;
31347;SDS011;21711;49.708;18.568;2024-02-23T09:19:59;12.18;;;6.65;;
31347;SDS011;21711;49.708;18.568;2024-02-23T09:22:26;6.10;;;2.40;;
31347;SDS011;21711;49.708;18.568;2024-02-23T09:24:54;7.93;;;4.35;;
31347;SDS011;21711;49.708;18.568;2024-02-23T09:27:23;4.00;;;2.58;;
31347;SDS011;21711;49.708;18.568;2024-02-23T09:29:50;3.80;;;1.70;;
31347;SDS011;21711;49.708;18.568;2024-02-23T09:32:17;3.90;;;1.90;;
31347;SDS011;21711;49.708;18.568;2024-02-23T09:34:45;4.40;;;2.20;;
31347;SDS011;21711;49.708;18.568;2024-02-23T09:37:12;3.85;;;2.10;;
31347;SDS011;21711;49.708;18.568;2024-02-23T09:39:40;3.42;;;1.33;;
31347;SDS011;21711;49.708;18.568;2024-02-23T09:42:08;1.48;;;0.52;;
31347;SDS011;21711;49.708;18.568;2024-02-23T09:44:39;3.38;;;1.02;;
31347;SDS011;21711;49.708;18.568;2024-02-23T09:47:10;1.60;;;0.60;;
31347;SDS011;21711;49.708;18.568;2024-02-23T09:49:39;1.40;;;0.70;;
31347;SDS011;21711;49.708;18.568;2024-02-23T09:52:07;0.95;;;0.68;;
31347;SDS011;21711;49.708;18.568;2024-02-23T09:54:38;2.22;;;0.63;;
31347;SDS011;21711;49.708;18.568;2024-02-23T09:57:06;1.55;;;0.88;;
31347;SDS011;21711;49.708;18.568;2024-02-23T09:59:36;1.63;;;0.80;;
31347;SDS011;21711;49.708;18.568;2024-02-23T10:02:08;1.42;;;0.68;;
31347;SDS011;21711;49.708;18.568;2024-02-23T10:04:39;2.10;;;0.85;;
31347;SDS011;21711;49.708;18.568;2024-02-23T10:07:07;2.33;;;1.00;;
31347;SDS011;21711;49.708;18.568;2024-02-23T10:09:35;1.92;;;0.90;;
31347;SDS011;21711;49.708;18.568;2024-02-23T10:12:03;3.28;;;0.95;;
31347;SDS011;21711;49.708;18.568;2024-02-23T10:14:31;1.83;;;1.02;;
31347;SDS011;21711;49.708;18.568;2024-02-23T10:16:58;3.08;;;1.20;;
31347;SDS011;21711;49.708;18.568;2024-02-23T10:19:28;2.00;;;1.00;;
31347;SDS011;21711;49.708;18.568;2024-02-23T10:21:56;4.00;;;1.50;;
31347;SDS011;21711;49.708;18.568;2024-02-23T10:24:24;3.92;;;1.73;;
31347;SDS011;21711;49.708;18.568;2024-02-23T10:26:52;2.83;;;1.30;;
31347;SDS011;21711;49.708;18.568;2024-02-23T10:29:19;2.55;;;1.52;;
31347;SDS011;21711;49.708;18.568;2024-02-23T10:31:48;5.38;;;1.30;;
31347;SDS011;21711;49.708;18.568;2024-02-23T10:34:19;1.85;;;1.20;;
31347;SDS011;21711;49.708;18.568;2024-02-23T10:36:47;3.08;;;1.60;;
31347;SDS011;21711;49.708;18.568;2024-02-23T10:39:17;1.92;;;1.08;;
31347;SDS011;21711;49.708;18.568;2024-02-23T10:41:59;3.40;;;1.48;;
31347;SDS011;21711;49.708;18.568;2024-02-23T10:44:30;2.03;;;1.20;;
31347;SDS011;21711;49.708;18.568;2024-02-23T10:46:58;3.08;;;1.40;;
31347;SDS011;21711;49.708;18.568;2024-02-23T10:49:27;3.05;;;1.45;;
31347;SDS011;21711;49.708;18.568;2024-02-23T10:51:55;3.72;;;1.65;;
31347;SDS011;21711;49.708;18.568;2024-02-23T10:54:23;3.83;;;2.05;;
31347;SDS011;21711;49.708;18.568;2024-02-23T10:56:51;4.20;;;1.98;;
31347;SDS011;21711;49.708;18.568;2024-02-23T10:59:22;3.33;;;1.50;;
31347;SDS011;21711;49.708;18.568;2024-02-23T11:01:53;5.03;;;1.90;;
31347;SDS011;21711;49.708;18.568;2024-02-23T11:04:24;3.38;;;1.80;;
31347;SDS011;21711;49.708;18.568;2024-02-23T11:06:54;2.88;;;1.48;;
31347;SDS011;21711;49.708;18.568;2024-02-23T11:09:26;2.25;;;1.30;;
31347;SDS011;21711;49.708;18.568;2024-02-23T11:11:57;2.60;;;1.20;;
31347;SDS011;21711;49.708;18.568;2024-02-23T11:14:44;2.33;;;1.13;;
31347;SDS011;21711;49.708;18.568;2024-02-23T11:17:17;2.25;;;1.10;;
31347;SDS011;21711;49.708;18.568;2024-02-23T11:19:49;2.85;;;1.20;;
31347;SDS011;21711;49.708;18.568;2024-02-23T11:22:53;2.95;;;1.10;;
31347;SDS011;21711;49.708;18.568;2024-02-23T11:25:17;2.50;;;1.20;;
31347;SDS011;21711;49.708;18.568;2024-02-23T11:27:45;2.20;;;1.02;;
31347;SDS011;21711;49.708;18.568;2024-02-23T11:30:17;2.15;;;1.20;;
31347;SDS011;21711;49.708;18.568;2024-02-23T11:32:48;2.55;;;1.02;;
31347;SDS011;21711;49.708;18.568;2024-02-23T11:35:21;2.17;;;1.30;;
31347;SDS011;21711;49.708;18.568;2024-02-23T11:37:54;2.92;;;1.17;;
31347;SDS011;21711;49.708;18.568;2024-02-23T11:40:31;3.15;;;1.30;;
31347;SDS011;21711;49.708;18.568;2024-02-23T11:42:58;3.45;;;1.27;;
31347;SDS011;21711;49.708;18.568;2024-02-23T11:45:30;1.80;;;1.15;;
31347;SDS011;21711;49.708;18.568;2024-02-23T11:47:58;2.90;;;1.40;;
31347;SDS011;21711;49.708;18.568;2024-02-23T11:50:26;4.28;;;1.50;;
31347;SDS011;21711;49.708;18.568;2024-02-23T11:52:54;3.25;;;1.15;;
31347;SDS011;21711;49.708;18.568;2024-02-23T11:55:22;0.95;;;0.40;;
31347;SDS011;21711;49.708;18.568;2024-02-23T11:57:50;0.40;;;0.20;;
31347;SDS011;21711;49.708;18.568;2024-02-23T12:00:31;0.35;;;0.22;;
31347;SDS011;21711;49.708;18.568;2024-02-23T12:02:58;0.43;;;0.10;;
31347;SDS011;21711;49.708;18.568;2024-02-23T12:05:26;0.70;;;0.30;;
31347;SDS011;21711;49.708;18.568;2024-02-23T12:07:55;2.25;;;1.30;;
31347;SDS011;21711;49.708;18.568;2024-02-23T12:10:23;2.97;;;1.70;;
31347;SDS011;21711;49.708;18.568;2024-02-23T12:12:53;6.03;;;2.05;;
31347;SDS011;21711;49.708;18.568;2024-02-23T12:15:20;3.83;;;1.42;;
31347;SDS011;21711;49.708;18.568;2024-02-23T12:17:48;2.75;;;1.00;;
31347;SDS011;21711;49.708;18.568;2024-02-23T12:20:17;1.48;;;0.30;;
31347;SDS011;21711;49.708;18.568;2024-02-23T12:22:45;0.70;;;0.30;;
31347;SDS011;21711;49.708;18.568;2024-02-23T12:25:13;1.48;;;0.50;;
31347;SDS011;21711;49.708;18.568;2024-02-23T12:27:42;2.22;;;1.20;;
31347;SDS011;21711;49.708;18.568;2024-02-23T12:30:13;4.45;;;1.40;;
31347;SDS011;21711;49.708;18.568;2024-02-23T12:32:42;2.67;;;1.02;;
31347;SDS011;21711;49.708;18.568;2024-02-23T12:35:12;4.65;;;1.30;;
31347;SDS011;21711;49.708;18.568;2024-02-23T12:37:41;3.53;;;1.85;;
31347;SDS011;21711;49.708;18.568;2024-02-23T12:40:11;2.70;;;1.50;;
31347;SDS011;21711;49.708;18.568;2024-02-23T12:42:39;2.80;;;1.33;;
31347;SDS011;21711;49.708;18.568;2024-02-23T12:45:07;3.17;;;1.50;;
31347;SDS011;21711;49.708;18.568;2024-02-23T12:47:35;4.68;;;1.60;;
31347;SDS011;21711;49.708;18.568;2024-02-23T12:50:02;4.25;;;1.85;;
31347;SDS011;21711;49.708;18.568;2024-02-23T12:52:32;4.57;;;2.17;;
31347;SDS011;21711;49.708;18.568;2024-02-23T12:55:00;4.35;;;2.00;;
31347;SDS011;21711;49.708;18.568;2024-02-23T12:57:27;4.10;;;1.92;;
31347;SDS011;21711;49.708;18.568;2024-02-23T12:59:54;4.13;;;1.70;;
31347;SDS011;21711;49.708;18.568;2024-02-23T13:02:22;4.97;;;2.42;;
31347;SDS011;21711;49.708;18.568;2024-02-23T13:04:49;4.22;;;2.47;;
31347;SDS011;21711;49.708;18.568;2024-02-23T13:07:16;3.47;;;1.75;;
31347;SDS011;21711;49.708;18.568;2024-02-23T13:09:44;4.93;;;2.08;;
31347;SDS011;21711;49.708;18.568;2024-02-23T13:12:12;4.00;;;2.00;;
31347;SDS011;21711;49.708;18.568;2024-02-23T13:14:39;4.97;;;1.80;;
31347;SDS011;21711;49.708;18.568;2024-02-23T13:17:07;4.72;;;1.98;;
31347;SDS011;21711;49.708;18.568;2024-02-23T13:19:34;5.35;;;2.22;;
31347;SDS011;21711;49.708;18.568;2024-02-23T13:22:02;4.18;;;2.00;;
31347;SDS011;21711;49.708;18.568;2024-02-23T13:24:29;4.68;;;2.42;;
31347;SDS011;21711;49.708;18.568;2024-02-23T13:26:57;5.72;;;1.73;;
31347;SDS011;21711;49.708;18.568;2024-02-23T13:29:24;3.22;;;1.83;;
31347;SDS011;21711;49.708;18.568;2024-02-23T13:31:51;4.55;;;2.25;;
31347;SDS011;21711;49.708;18.568;2024-02-23T13:34:19;3.42;;;1.42;;
31347;SDS011;21711;49.708;18.568;2024-02-23T13:36:46;2.88;;;1.70;;
31347;SDS011;21711;49.708;18.568;2024-02-23T13:39:16;7.38;;;1.75;;
31347;SDS011;21711;49.708;18.568;2024-02-23T13:41:43;6.72;;;2.00;;
31347;SDS011;21711;49.708;18.568;2024-02-23T13:44:11;4.97;;;1.98;;
31347;SDS011;21711;49.708;18.568;2024-02-23T13:46:38;3.08;;;1.60;;
31347;SDS011;21711;49.708;18.568;2024-02-23T13:49:06;2.92;;;1.60;;
31347;SDS011;21711;49.708;18.568;2024-02-23T13:51:35;2.92;;;1.42;;
31347;SDS011;21711;49.708;18.568;2024-02-23T13:54:03;4.43;;;1.40;;
31347;SDS011;21711;49.708;18.568;2024-02-23T13:56:30;1.92;;;1.15;;
31347;SDS011;21711;49.708;18.568;2024-02-23T13:58:58;4.93;;;1.70;;
31347;SDS011;21711;49.708;18.568;2024-02-23T14:01:25;4.03;;;1.85;;
31347;SDS011;21711;49.708;18.568;2024-02-23T14:03:53;3.70;;;1.85;;
31347;SDS011;21711;49.708;18.568;2024-02-23T14:06:21;3.88;;;2.10;;
31347;SDS011;21711;49.708;18.568;2024-02-23T14:08:49;4.30;;;2.67;;
31347;SDS011;21711;49.708;18.568;2024-02-23T14:11:16;3.58;;;2.00;;
31347;SDS011;21711;49.708;18.568;2024-02-23T14:13:45;4.20;;;1.92;;
31347;SDS011;21711;49.708;18.568;2024-02-23T14:16:17;1.42;;;0.70;;
31347;SDS011;21711;49.708;18.568;2024-02-23T14:18:44;4.15;;;0.68;;
31347;SDS011;21711;49.708;18.568;2024-02-23T14:21:12;0.80;;;0.55;;
31347;SDS011;21711;49.708;18.568;2024-02-23T14:23:40;2.42;;;0.80;;
31347;SDS011;21711;49.708;18.568;2024-02-23T14:26:09;2.78;;;0.93;;
31347;SDS011;21711;49.708;18.568;2024-02-23T14:28:36;1.80;;;0.98;;
31347;SDS011;21711;49.708;18.568;2024-02-23T14:31:04;2.90;;;0.75;;
31347;SDS011;21711;49.708;18.568;2024-02-23T14:33:31;4.68;;;1.13;;
31347;SDS011;21711;49.708;18.568;2024-02-23T14:35:59;4.82;;;1.48;;
31347;SDS011;21711;49.708;18.568;2024-02-23T14:38:27;5.95;;;1.50;;
31347;SDS011;21711;49.708;18.568;2024-02-23T14:40:54;4.70;;;1.58;;